Aérodrome :
LOGIN :

S'inscrire | Disclaimer

   EN    FR    IT 

 










Légende :    VFR   VFR Marginal   IFR   IFR Intensif   IFR Très Intensif
Visi : 
Plafond : 
>= 8 km
>= 3000ft
5 à 8 km
1000 à 3000 ft
1500m à 5 km
500 à 1000 ft
800 à 1500m
200 à 500 ft
< 800m
< 200 ft
Symboles :   Orages  Brouillard  Fortes neiges  Fortes précipitations  Vent > 20 kt
SIGMETs :   Divers  Orages  Givrage  Turbulence  Onde Orograph.  Cendres Volcan.







- Altitude de l'aérodrome : 194 ft
- Code IATA : ANE
- Voir les cartes d'approche


LFJR - Angers Marcé

DERNIER METAR :
  • 231600Z AUTO 26008KT 9999 FEW021 OVC041 12/09 Q1009 NOSIG

METARs EXPIRÉS :
  • 231530Z AUTO 25013KT 9999 BKN010 BKN017 OVC038 12/10 Q1008 BECMG BKN020
  • 231500Z AUTO 24014KT 9999 OVC008 11/10 Q1008 TEMPO 25017G27KT BECMG BKN020
  • 231430Z AUTO 24017KT 6000 OVC008 11/10 Q1008 TEMPO 25017G27KT BECMG BKN020
  • 231400Z AUTO 24018KT 9999 OVC011 11/09 Q1008 TEMPO 24016G30KT 3000 RADZ BECMG BKN020
  • 231330Z AUTO 24021KT 9999 OVC012 12/09 Q1008 TEMPO 3000 RADZ BECMG 28010KT BKN020

TAF TAF LFJR
Valide du 23 à 15h jusqu'au 24 à 00h UTC


231400Z 2315/2324 25017G27KT 9999 BKN020
BECMG 2316/2318 27010KT
Pas de NOTAMs connus pour ce terrain.
2 SIGMETs publiés pour la FIR Brest (LFRR) :
 
Turbulence forte
LFRR SIGMET 4 VALID 231600/232000 LFPW
LFRR BREST FIR/UIR SEV TURB FCST WI N4945 W00245 - N5000 W00200 - N5000 W00015 - N4830 W00015 SFC/FL050 MOV NE 25KT WKN=
Turbulence forte
LFRR SIGMET 3 VALID 231300/231600 LFPW
LFRR BREST FIR/UIR SEV TURB FCST WI N4930 W00445 - N5000 W00200 - N5000 W00015 - N4815 W00015 SFC/FL050 MOV NE 20KT NC=



MET'MAP, la Météo Aéronautique d'un coup d'oeil ! - Copyright ORBIFLY Décembre 2007 - Disclaimer

ORBIFLY MET'MAP TEAM :

Programmation & Développement : Alexandra Zaïnal
Conception & Développement : Baudouin d'Aumeries
Co-Programmation & Développement : Marc-Olivier Méhu
Soutien technique & logistique : Manuel Goepfert

Contact : metmap@orbifly.com




SOURCES & CREDITS :

   NOAA